METAR Data
IDs: Format: Raw Decoded Include TAF

Data at: 1118 UTC 18 Jan 2022

SARF 181100Z 36011KT 9000 NSC 33/18 Q1009